Tiempo atmosférico en la estación meteorológica de Salamanca Aeropuerto, Salamanca (790 m.)



Fecha
DESCASC
Temp. máxima en grados centígrados (hora)
DESCASC
Temp. mínima en grados centígrados (hora)
DESCASC
Temp. media en grados centígrados
DESCASC
Racha de viento máxima en m/sg (hora)
DESCASC
Velocidad máxima media en intervalos de 10 minutos(hora)
DESCASC
Precipitaciones diarias en mm
DESCASC
Precipitaciones de 00:00 a 06:00 en mm
DESCASC
Precipitaciones de 06:00 a 12:00 en mm
DESCASC
Precipitaciones de 12:00 a 18:00 en mm
DESCASC
Precipitaciones de 18:00 a 24:00 en mm
DESCASC
16-06-2019 28.3 (17:00) 6 (07:10) 17.1 8.89 (17:20) 5.83 (17:20) 0 0 0 0 0
15-06-2019 23.9 (19:40) 5.4 (07:00) 14.6 7.78 (00:10) 5.28 (00:10) 0 0 0 0 0
14-06-2019 21.2 (16:30) 5 (06:40) 13.1 14.44 (15:40) 8.06 (18:50) 0 0 0 0 0
13-06-2019 25 (17:10) 4.1 (00:00) 14.5 13.89 (14:50) 9.17 (14:50) 0 0 0 0 0
12-06-2019 23.3 (18:30) 3.6 (00:00) 13.4 9.17 (18:30) 5 (09:30) 0 0 0 0 0
11-06-2019 19.6 (17:20) 10.9 (00:00) 15.3 12.5 (16:20) 7.5 (12:10) 0 0 0 0 0
10-06-2019 -- (--) -- (--) -- -- (--) -- (--) -- 0 0 0 --
09-06-2019 23.2 (17:30) 6.5 (00:00) 14.9 11.39 (16:50) 6.94 (19:00) 0 0 0 0 0
08-06-2019 26 (18:40) 4.1 (00:00) 15 8.89 (12:00) 5.28 (19:50) 0 0 0 0 0
07-06-2019 18.5 (18:50) 6.6 (00:00) 12.5 12.5 (00:10) 8.61 (00:10) 0.7 0.7 0 0 0
06-06-2019 21.3 (18:40) 3.4 (00:00) 12.3 21.67 (19:10) 15 (19:20) 2.9 0 0 0 2.9
05-06-2019 19.3 (17:10) 7.1 (00:00) 13.2 13.89 (13:00) 8.61 (00:50) 0 0 0 0 0
04-06-2019 23.9 (15:30) 12.1 (00:00) 18 13.33 (16:50) 8.89 (17:30) 0 0 0 0 0
03-06-2019 31.2 (17:20) 14.4 (00:00) 22.8 17.5 (18:00) 9.17 (20:10) 0 0 0 0 0
02-06-2019 31.7 (16:30) 12.4 (00:00) 22.1 11.67 (15:30) 7.22 (15:50) 0 0 0 0 0
01-06-2019 33.2 (16:40) 9.1 (00:00) 21.2 8.33 (14:20) 5.56 (23:30) 0 0 0 0 0
31-05-2019 31.7 (18:50) 8.9 (00:00) 20.3 7.22 (15:20) 4.72 (00:10) 0 0 0 0 0
30-05-2019 29.8 (17:50) 7.8 (00:00) 18.8 10.28 (15:20) 6.11 (14:30) 0 0 0 0 0
29-05-2019 -- (--) -- (--) -- -- (--) -- (--) -- 0 0 -- 0
28-05-2019 23.6 (17:30) 8.5 (00:00) 16.1 12.78 (23:50) 9.17 (23:40) 0 0 0 0 0
27-05-2019 26.5 (18:50) 11.4 (00:00) 18.9 10.28 (14:40) 7.5 (23:59) 0 0 0 0 0
26-05-2019 26.5 (19:00) 7 (00:00) 16.8 9.17 (12:20) 5 (01:10) 0 0 0 0 0
25-05-2019 22.6 (17:40) 6.3 (00:00) 14.5 12.5 (13:00) 8.06 (12:50) 0 0 0 0 0
24-05-2019 22.8 (18:00) 8.7 (00:00) 15.7 11.67 (13:00) 8.33 (10:00) 0 0 0 0 0
23-05-2019 26.1 (16:50) 10.6 (00:00) 18.4 11.67 (16:10) 6.94 (17:10) 0 0 0 0 0
22-05-2019 27.3 (18:20) 6.8 (00:00) 17 8.33 (00:10) 5.56 (00:20) 0 0 0 0 0

Gráficas

Temp. máximas Temp. mínimas Temp. medias Precipitaciones Rachas de viento máximas Velocidades máximas media en intervalos de 10 minutos

Datos horarios

Fecha y hora oficial Temperatura (ºC) Velocidad del viento (km/h) Dirección del viento Racha (km/h) Dirección de racha Precipitación (mm) Presión (hPa) Tendencia (hPa) Humedad (%)
2019-06-20 23:00:00 15.8 18 Norte 45 Oeste 0.1 924.7 2.2 79
2019-06-20 22:00:00 18.3 24 Noroeste 39 Noroeste 0 922.8 0.3 60
2019-06-20 21:00:00 19 7 Noroeste 18 Noroeste 0 922.7 0.3 63
2019-06-20 20:00:00 20.1 11 Norte 32 Noroeste 0 922.5 0.3 59
2019-06-20 19:00:00 20.1 20 Noroeste 35 Norte 0 922.5 0 57
2019-06-20 18:00:00 20.9 21 Noroeste 37 Noroeste 0 922.4 -0.9 58
2019-06-20 17:00:00 20.9 9 Oeste 33 Oeste 0.3 922.2 -1.5 64
2019-06-20 16:00:00 25.1 7 Sur 22 Sudeste 0 922.5 -1.7 34
2019-06-20 15:00:00 24.7 10 Sudoeste 18 Sudoeste 0 923.3 -1 38
2019-06-20 14:00:00 23.7 8 Norte 15 Norte 0 923.7 -0.7 42
2019-06-20 13:00:00 22.9 10 Nordeste 21 Este 0 924.2 -0.4 43
2019-06-20 12:00:00 22.1 11 Este 21 Este 0 924.3 -0.5 44
2019-06-20 11:00:00 20.3 8 Este 15 Este 0 924.4 -0.3 54
2019-06-20 10:00:00 17.8 5 Nordeste 11 Nordeste 0 924.6 -0.3 61
2019-06-20 09:00:00 15.9 4 Este 8 Sudeste 0 924.8 -0.2 67
2019-06-20 08:00:00 15 4 Este 5 Este 0 924.7 -0.3 76
2019-06-20 07:00:00 14.7 3 Norte 8 Norte 0 924.9 -0.3 76
2019-06-20 06:00:00 14.9 3 Norte 9 Noroeste 0 925 -0.4 74
2019-06-20 05:00:00 14.6 8 Noroeste 11 Noroeste 0 925 -0.5 79
2019-06-20 04:00:00 15 6 Oeste 8 Noroeste 0 925.2 -0.3 78
2019-06-20 03:00:00 14.7 3 Noroeste 9 Oeste 0 925.4 0.1 79
2019-06-20 02:00:00 14.5 7 Oeste 8 Oeste 0 925.5 0.3 84
2019-06-20 01:00:00 14.7 3 Sur 13 Oeste 0 925.5 0.8 79
2019-06-20 00:00:00 16 11 Oeste 15 Oeste 0 925.3 0.8 78
2019-06-19 23:00:00 17.2 8 Oeste 13 Oeste 0 925.2 1 68
2019-06-19 22:00:00 19.1 12 Noroeste 21 Noroeste 0 924.7 0.4 60
2019-06-19 21:00:00 21.8 14 Noroeste 24 Noroeste 0 924.5 0.1 50
2019-06-19 20:00:00 22 14 Oeste 30 Sudoeste 0 924.2 -0.4 47
2019-06-19 19:00:00 22.2 14 Oeste 33 Oeste 0 924.3 -0.4 48
2019-06-19 18:00:00 23 15 Oeste 30 Oeste 0 924.4 -0.7 45
2019-06-19 17:00:00 22.8 20 Oeste 30 Oeste 0 924.6 -0.5 47
2019-06-19 16:00:00 22.7 18 Oeste 30 Noroeste 0 924.7 -0.3 49
2019-06-19 15:00:00 22.9 21 Oeste 33 Noroeste 0 925.1 0 48
2019-06-19 14:00:00 22.2 19 Oeste 30 Oeste 0 925.1 0 46
2019-06-19 13:00:00 20.6 10 Oeste 26 Oeste 0 925 0.1 52
2019-06-19 12:00:00 20.3 14 Sudoeste 30 Sudoeste 0 925.1 0.4 50
2019-06-19 11:00:00 18.3 17 Oeste 24 Oeste 0 925.1 0.8 62
2019-06-19 10:00:00 18 13 Oeste 24 Oeste 0 924.9 0.6 66
2019-06-19 09:00:00 16.6 16 Oeste 30 Oeste 0 924.7 0.1 74
2019-06-19 08:00:00 15.6 18 Sudoeste 26 Sudoeste 0 924.3 0.1 79
2019-06-19 07:00:00 13.2 8 Sudeste 11 Sudeste 0 924.3 0.3 83
2019-06-19 06:00:00 13.2 6 Sudoeste 9 Sudoeste 0 924.6 0.5 83
2019-06-19 05:00:00 11.6 5 Sur 5 Sur 0 924.2 0.1 84
2019-06-19 04:00:00 11.5 0 Calma 13 Sudeste 0 924 -0.2 86
2019-06-19 03:00:00 13.2 5 Oeste 13 Oeste 0 924.1 -0.2 80
2019-06-19 02:00:00 13.9 9 Oeste 18 Oeste 0 924.1 0.1 79
2019-06-19 01:00:00 15.3 15 Oeste 22 Oeste 0 924.2 0.7 73
2019-06-19 00:00:00 16.9 16 Sudoeste 30 Sudoeste 0 924.3 0.8 68
2019-06-18 23:00:00 17 13 Sudoeste 21 Sudoeste 0 924 0.7 67
2019-06-18 22:00:00 19.3 14 Sudoeste 35 Sudoeste 0 923.5 0.3 58
2019-06-18 21:00:00 21.4 27 Sudoeste 50 Sudoeste 0 923.5 0.5 50
2019-06-18 20:00:00 22.7 36 Sudoeste 58 Sudoeste 0 923.3 0.1 44
2019-06-18 19:00:00 23.3 31 Sudoeste 50 Oeste 0 923.2 0.2 45
2019-06-18 18:00:00 24.1 36 Sudoeste 58 Sudoeste 0 923 0 39
2019-06-18 17:00:00 23.8 42 Sudoeste 63 Sudoeste 0 923.2 0 42
2019-06-18 16:00:00 25 38 Sudoeste 68 Sudoeste 0 923 -0.2 33
2019-06-18 15:00:00 25.1 38 Sudoeste 59 Oeste 0 923 -0.1 33
2019-06-18 14:00:00 24.4 35 Sudoeste 55 Sudoeste 0 923.2 0.1 31
2019-06-18 13:00:00 24.1 34 Sudoeste 50 Oeste 0 923.2 -0.2 28
2019-06-18 12:00:00 23.5 28 Sudoeste 46 Sudoeste 0 923.1 -0.4 19
2019-06-18 11:00:00 21.8 28 Sudoeste 42 Sudoeste 0 923.1 0 23
2019-06-18 10:00:00 20 27 Sudoeste 39 Sudoeste 0 923.4 0.6 30
2019-06-18 09:00:00 18.2 17 Sudoeste 24 Sudoeste 0 923.5 1 44
2019-06-18 08:00:00 15.4 9 Sudoeste 15 Sur 0 923.1 0.9 52
2019-06-18 07:00:00 12.5 9 Sudoeste 18 Sudoeste 0 922.8 0.3 57
2019-06-18 06:00:00 11.3 13 Sur -- -- 0 922.5 -0.5 61
2019-06-18 05:00:00 12.2 9 Sur 13 Sur 0 922.2 -1.3 68
2019-06-18 04:00:00 12.2 5 Este 8 Este 0 922.5 -1.2 73
2019-06-18 03:00:00 13.6 6 Sudoeste 9 Oeste 0 923 -1 69
2019-06-18 02:00:00 15.1 5 Este 15 Sur 0 923.5 -0.8 56
2019-06-18 01:00:00 17.8 13 Sudeste 18 Sudeste 0 923.7 -0.2 48
2019-06-18 00:00:00 19.7 14 Nordeste 22 Nordeste 0 924 0.2 39
2019-06-17 23:00:00 19.8 3 Sudeste 11 Noroeste 0 924.3 0.7 41
2019-06-17 22:00:00 19.7 10 Oeste 18 Oeste 0 923.9 0.2 48
2019-06-17 21:00:00 23.2 14 Oeste 26 Oeste 0 923.8 -0.2 25
2019-06-17 20:00:00 24.9 18 Sudoeste 35 Oeste 0 923.6 -0.3 19
2019-06-17 19:00:00 25.7 22 Oeste 35 Oeste 0 923.7 -0.4 20
2019-06-17 18:00:00 26.6 22 Oeste 42 Sudoeste 0 924 -0.4 22
2019-06-17 17:00:00 28.5 30 Oeste 42 Oeste 0 923.9 -1.2 18
2019-06-17 16:00:00 29.1 21 Oeste 35 Oeste 0 924.1 -1.5 20
2019-06-17 15:00:00 28.8 19 Sudoeste 39 Sudoeste 0 924.4 -1.6 22
2019-06-17 14:00:00 28.2 18 Sudoeste 37 Sur 0 925.1 -1.2 21
2019-06-17 13:00:00 27.1 14 Sur 33 Sudoeste 0 925.6 -1 23
2019-06-17 12:00:00 25 10 Sur 21 Sur 0 926 -0.8 29
2019-06-17 11:00:00 23.5 7 Este 15 Este 0 926.3 -0.4 35
2019-06-17 10:00:00 19.2 9 Sur 13 Sur 0 926.6 0.1 43
2019-06-17 09:00:00 15.2 4 Este 8 Sudeste 0 926.8 0.3 67
2019-06-17 08:00:00 10.8 3 Sudeste 5 Sudeste 0 926.7 0.1 78
2019-06-17 07:00:00 8.4 5 Sudeste 8 Sudeste 0 926.5 -0.3 83
2019-06-17 06:00:00 8.8 0 Calma 4 Este 0 926.5 -0.4 91
2019-06-17 05:00:00 9.4 2 Sudeste 8 Sudoeste 0 926.6 0 85
2019-06-17 04:00:00 10.1 5 Sudoeste 11 Sudoeste 0 926.8 0 76
2019-06-17 03:00:00 10.8 8 Sudoeste 13 Sur 0 926.9 0.2 69
2019-06-17 02:00:00 11.8 8 Sudoeste 11 Sudoeste 0 926.6 0 63
2019-06-17 01:00:00 12.8 4 Este 9 Sudeste 0 926.8 0.7 67
2019-06-17 00:00:00 15.4 0 Calma -- -- 0 926.7 1 49
2019-06-16 23:00:00 15.8 8 Oeste 15 Sudoeste 0 926.6 0.9 54
2019-06-16 22:00:00 19.3 13 Sudoeste 18 Oeste 0 926.1 0.5 36
2019-06-16 21:00:00 22.2 12 Oeste 21 Oeste 0 925.7 0 35
2019-06-16 20:00:00 27.2 15 Oeste 24 Oeste 0 925.7 -0.1 16
2019-06-16 19:00:00 26.8 17 Oeste 30 Sudoeste 0 925.6 -0.6 17
2019-06-16 18:00:00 27.4 16 Oeste 32 Oeste 0 925.7 -0.9 17
2019-06-16 17:00:00 28.1 11 Sudoeste 22 Oeste 0 925.8 -1.5 19
2019-06-16 16:00:00 26.4 6 Nordeste 21 Sudeste 0 926.2 -1.3 21
2019-06-16 15:00:00 26.1 10 Este 26 Nordeste 0 926.6 -1.3 22
2019-06-16 14:00:00 24.6 9 Norte 18 Nordeste 0 927.3 -0.8 24
2019-06-16 13:00:00 22.8 7 Norte 18 Norte 0 927.5 -0.9 26
2019-06-16 12:00:00 21.6 6 Este 13 Este 0 927.9 -0.3 35
2019-06-16 11:00:00 18.5 5 Sudeste 11 Sur 0 928.1 0.2 45
2019-06-16 10:00:00 15.5 6 Este 11 Este 0 928.4 0.9 53
2019-06-16 09:00:00 12.2 3 Sudeste 8 Sudeste 0 928.2 0.7 60
2019-06-16 08:00:00 8.4 4 Sur 5 Sur 0 927.9 0.2 75
2019-06-16 07:00:00 6.2 2 Este 5 Nordeste 0 927.5 -0.4 91
2019-06-16 06:00:00 6.5 0 Calma -- -- 0 927.5 -0.6 86
2019-06-16 05:00:00 7.9 3 Sur 5 Sur 0 927.7 -0.9 86
2019-06-16 04:00:00 8.3 3 Este 5 Noroeste 0 927.9 -0.9 88
2019-06-16 03:00:00 9.4 4 Sur 9 Sur 0 928.1 -0.5 70
2019-06-16 02:00:00 10.7 6 Sur 8 Sur 0 928.6 0.3 63
2019-06-16 01:00:00 12.4 2 Este 5 Nordeste 0 928.8 1 62
2019-06-16 00:00:00 12.8 3 Sudoeste 11 Norte 0 928.6 1 59
2019-06-15 23:00:00 14.3 10 Norte 13 Noroeste 0 928.3 0.7 58
2019-06-15 22:00:00 17.8 9 Noroeste 13 Noroeste 0 927.8 0.3 43
2019-06-15 21:00:00 22.7 5 Noroeste 15 Norte 0 927.6 -0.3 30
2019-06-15 20:00:00 23.3 7 Oeste 17 Norte 0 927.6 -0.5 25
2019-06-15 19:00:00 23.4 5 Oeste 18 Sudoeste 0 927.5 -1 24
2019-06-15 18:00:00 23.1 11 Oeste 21 Noroeste 0 927.9 -1.1 25
2019-06-15 17:00:00 22.1 13 Noroeste 22 Oeste 0 928.1 -1.2 27
2019-06-15 16:00:00 20.8 8 Oeste 21 Oeste 0 928.5 -0.9 30
2019-06-15 15:00:00 19.7 7 Sur 18 Oeste 0 929 -0.4 37
2019-06-15 14:00:00 18.1 8 Nordeste 18 Oeste 0 929.3 -0.2 42
2019-06-15 13:00:00 16.6 5 Oeste 17 Sudoeste 0 929.4 0 46
2019-06-15 12:00:00 15.3 8 Oeste 17 Oeste 0 929.4 0.3 51
2019-06-15 11:00:00 13.9 6 Noroeste 15 Oeste 0 929.5 0.9 59
2019-06-15 10:00:00 11.8 5 Oeste 15 Sudoeste 0 929.4 1.1 69
2019-06-15 09:00:00 9.9 10 Oeste 17 Sudoeste 0 929.1 1.3 78
2019-06-15 08:00:00 7.3 9 Sudoeste 11 Sudoeste 0 928.6 0.9 86
2019-06-15 07:00:00 5.5 4 Nordeste 15 Oeste 0 928.3 0.6 90
2019-06-15 06:00:00 6.4 13 Oeste 21 Oeste 0 927.8 0.1 88
2019-06-15 05:00:00 6.8 10 Oeste 17 Oeste 0 927.7 0.4 85
2019-06-15 04:00:00 8 13 Oeste 21 Oeste 0 927.7 0.7 82
2019-06-15 03:00:00 8.3 13 Oeste 21 Oeste 0 927.7 1.1 78
2019-06-15 02:00:00 9.4 10 Oeste 22 Oeste 0 927.3 1.1 76
2019-06-15 01:00:00 10.3 14 Oeste 28 Oeste 0 927 2 71
2019-06-15 00:00:00 11.7 20 Oeste 33 Oeste 0 926.6 2.5 63
2019-06-14 23:00:00 12.7 20 Oeste 39 Oeste 0 926.2 2.9 58
2019-06-14 22:00:00 14.4 24 Oeste 39 Oeste 0 925 2.4 48
2019-06-14 21:00:00 16.2 20 Oeste 39 Noroeste 0 924.1 1.7 44
2019-06-14 20:00:00 17.6 26 Oeste 37 Oeste 0 923.3 1 38
2019-06-14 19:00:00 19.2 24 Oeste 42 Oeste 0 922.6 0.4 35
2019-06-14 18:00:00 20.6 25 Oeste 46 Oeste 0 922.4 0.5 34
2019-06-14 17:00:00 20.3 23 Oeste 42 Oeste 0 922.3 0.5 34
2019-06-14 16:00:00 20.8 28 Oeste 52 Oeste 0 922.2 0.6 33
2019-06-14 15:00:00 20.1 25 Oeste 45 Oeste 0 921.9 0.5 36
2019-06-14 14:00:00 19.4 23 Oeste 41 Oeste 0 921.8 0.6 38
2019-06-14 13:00:00 19.1 22 Oeste 41 Oeste 0 921.6 0.4 36
2019-06-14 12:00:00 18 17 Oeste 32 Oeste 0 921.4 0.1 43
2019-06-14 11:00:00 15.8 10 Noroeste 17 Norte 0 921.2 0.4 55
2019-06-14 10:00:00 14 3 Este 8 Este 0 921.2 0.2 59
2019-06-14 09:00:00 11.2 2 Oeste 11 Oeste 0 921.3 0.8 71
2019-06-14 08:00:00 8.2 8 Sudoeste 13 Oeste 0 920.8 0.2 80
2019-06-14 07:00:00 5.5 6 Oeste 11 Oeste 0 921 0.1 87
2019-06-14 06:00:00 5.8 5 Oeste 11 Oeste 0 920.5 -0.1 84
2019-06-14 05:00:00 6.3 2 Oeste 8 Oeste 0 920.6 -0.4 80
2019-06-14 04:00:00 7.5 4 Oeste 5 Oeste 0 920.9 -0.3 77
2019-06-14 03:00:00 8 5 Oeste 11 Oeste 0 920.6 -0.4 75
2019-06-14 02:00:00 10.1 7 Sudoeste 9 Sudoeste 0 921 0.6 62
2019-06-14 01:00:00 11.3 6 Noroeste 13 Noroeste 0 921.2 1.6 62
2019-06-14 00:00:00 12.5 5 Norte 17 Noroeste 0 921 2.1 59
2019-06-13 23:00:00 13.6 12 Noroeste 17 Noroeste 0 920.4 2.1 58
2019-06-13 22:00:00 16.7 13 Noroeste 17 Noroeste 0 919.6 1.3 52
2019-06-13 21:00:00 22 9 Oeste 33 Sudoeste 0 918.9 0.5 32
2019-06-13 20:00:00 23.7 18 Sudoeste 39 Sudoeste 0 918.3 -0.2 13
2019-06-13 19:00:00 24.4 22 Sudoeste 37 Oeste 0 918.3 -0.4 14
2019-06-13 18:00:00 24.3 24 Sudoeste 45 Oeste 0 918.4 -0.5 14
2019-06-13 17:00:00 24.6 28 Sudoeste 48 Sudoeste 0 918.5 -0.5 11
2019-06-13 16:00:00 24.1 29 Sudoeste 48 Oeste 0 918.7 -0.8 12
2019-06-13 15:00:00 23.5 30 Sudoeste 50 Oeste 0 918.9 -1.1 14
2019-06-13 14:00:00 21.2 7 Sur 24 Este 0 919 -1.1 29
2019-06-13 13:00:00 18.8 8 Oeste 18 Oeste 0 919.5 -0.6 38
2019-06-13 12:00:00 16.7 7 Noroeste 13 Noroeste 0 920 0.2 44
2019-06-13 11:00:00 14.4 8 Oeste 13 Oeste 0 920.1 0.5 55
2019-06-13 10:00:00 11.9 7 Oeste 13 Noroeste 0 920.1 0.6 63
2019-06-13 09:00:00 9.7 10 Noroeste 15 Noroeste 0 919.8 0.5 70
2019-06-13 08:00:00 6.4 6 Noroeste -- -- 0 919.6 0.4 82
2019-06-13 07:00:00 4.2 4 Oeste 13 Oeste 0 919.5 0.1 81
2019-06-13 06:00:00 4.8 7 Oeste 11 Oeste 0 919.3 -0.2 77
2019-06-13 05:00:00 5.6 6 Oeste -- -- 0 919.2 -0.7 75
2019-06-13 04:00:00 6.1 9 Noroeste -- -- 0 919.4 -0.6 80
2019-06-13 03:00:00 7.1 6 Sudoeste 9 Sudoeste 0 919.5 -0.7 67
2019-06-13 02:00:00 8.6 5 Oeste 11 Oeste 0 919.9 -0.1 64
2019-06-13 01:00:00 9.9 3 Oeste 11 Nordeste 0 920 0.4 50
2019-06-13 00:00:00 11.3 9 Nordeste 13 Este 0 920.2 0.9 49
2019-06-12 23:00:00 13.2 11 Norte 17 Norte 0 920 0.8 41
2019-06-12 22:00:00 15.9 12 Noroeste 21 Noroeste 0 919.6 0.3 36
2019-06-12 21:00:00 20.3 10 Noroeste 22 Noroeste 0 919.3 -0.5 27
2019-06-12 20:00:00 22.1 13 Noroeste 26 Oeste 0 919.2 -1.1 24
2019-06-12 19:00:00 22.6 9 Noroeste 33 Sudoeste 0 919.3 -1.7 22
2019-06-12 18:00:00 22.1 6 Nordeste 18 Noroeste 0 919.8 -1.9 22
2019-06-12 17:00:00 21.2 4 Noroeste 22 Este 0 920.3 -2.3 24
2019-06-12 16:00:00 20.3 9 Norte 22 Nordeste 0 921 -2.2 26
2019-06-12 15:00:00 18.8 7 Norte 22 Norte 0 921.7 -1.9 31
2019-06-12 14:00:00 17.3 7 Oeste 18 Noroeste 0 922.6 -1.5 35
2019-06-12 13:00:00 16.8 6 Noroeste 18 Nordeste 0 923.2 -1.1 37
2019-06-12 12:00:00 15.1 12 Este 21 Este 0 923.6 -0.6 40
2019-06-12 11:00:00 13.6 13 Este 26 Este 0 924.1 0.1 42
2019-06-12 10:00:00 12.2 15 Este 26 Este 0 924.3 0.2 47
2019-06-12 09:00:00 10.1 14 Nordeste 22 Este 0 924.2 0.3 57
2019-06-12 08:00:00 6 4 Sur 11 Sur 0 924 -0.1 76
2019-06-12 07:00:00 3.7 0 Calma 8 Norte 0 924.1 -0.4 85
2019-06-12 06:00:00 4.3 0 Calma 5 Nordeste 0 923.9 -0.7 80
2019-06-12 05:00:00 5.5 0 Calma 8 Nordeste 0 924.1 -0.7 70
2019-06-12 04:00:00 6.6 5 Nordeste 11 Este 0 924.5 -0.1 68
2019-06-12 03:00:00 7.8 8 Este 21 Sudeste 0 924.6 0.1 64
2019-06-12 02:00:00 9.2 9 Este 21 Este 0 924.8 0.4 56
2019-06-12 01:00:00 10 13 Nordeste 22 Nordeste 0 924.6 0.5 54
2019-06-12 00:00:00 11.1 15 Nordeste 22 Nordeste 0 924.5 0.5 48
2019-06-11 23:00:00 11.3 13 Nordeste 21 Nordeste 0 924.4 0.5 44
2019-06-11 22:00:00 13.8 11 Nordeste 30 Norte 0 924.1 0.3 37
2019-06-11 21:00:00 17.2 16 Nordeste 32 Nordeste 0 924 0.3 28
2019-06-11 20:00:00 18.4 19 Norte 37 Nordeste 0 923.9 0 24
2019-06-11 19:00:00 18.9 17 Nordeste 33 Norte 0 923.8 -0.4 22
2019-06-11 18:00:00 19.2 18 Nordeste 42 Nordeste 0 923.7 -0.6 23
2019-06-11 17:00:00 19.1 23 Nordeste 45 Este 0 923.9 -0.5 21
2019-06-11 16:00:00 18.4 21 Norte 37 Norte 0 924.2 -0.1 24
2019-06-11 15:00:00 17.7 17 Norte 41 Nordeste 0 924.3 0.2 28
2019-06-11 14:00:00 16.7 22 Nordeste 41 Nordeste 0 924.4 0.3 31
2019-06-11 13:00:00 16.1 25 Nordeste 41 Nordeste 0 924.3 0.3 38
2019-06-11 12:00:00 15.9 24 Nordeste 39 Nordeste 0 924.1 0.2 41
2019-06-11 11:00:00 13.1 20 Nordeste 32 Nordeste 0 924.1 0.5 52
2019-06-11 10:00:00 12.4 20 Nordeste 30 Nordeste 0 924 0.8 60
2019-06-11 09:00:00 11.6 15 Nordeste 21 Nordeste 0 923.9 0.7 63
2019-06-11 08:00:00 10.9 10 Norte 15 Norte 0 923.6 0.1 68
2019-06-11 07:00:00 11.2 10 Norte 15 Nordeste 0 923.2 -0.6 67
2019-06-11 06:00:00 11.2 4 Norte 11 Nordeste 0 923.2 -0.8 68
2019-06-11 05:00:00 11 9 Nordeste 17 Nordeste 0 923.5 -0.3 68
2019-06-11 04:00:00 12.3 11 Nordeste 21 Norte 0 923.8 -0.4 64
2019-06-11 03:00:00 13.1 10 Norte 26 Noroeste 0 924 -0.1 60
2019-06-11 02:00:00 13.8 19 Noroeste 30 Noroeste 0 923.8 -0.3 56
2019-06-11 01:00:00 14.2 20 Noroeste 37 Noroeste 0 924.2 0.7 57
2019-06-11 00:00:00 15.8 22 Noroeste 35 Noroeste 0 924.1 -- 52
2019-06-10 23:00:00 15.7 12 Noroeste 24 Oeste 0 924.1 -- 40
2019-06-10 22:00:00 16 13 Noroeste -- -- -- 923.5 -0.1 39
2019-06-10 21:00:00 -- -- -- -- -- -- -- -- --
2019-06-10 20:00:00 -- -- -- -- -- -- -- -- --
2019-06-10 19:00:00 22.9 16 Noroeste 28 Noroeste 0 923.6 -1.8 27
2019-06-10 18:00:00 23 13 Noroeste 35 Sudoeste 0 924.2 -1.8 22
2019-06-10 17:00:00 22.5 10 Sur 22 Sudoeste 0 924.8 -2 27
2019-06-10 16:00:00 21.7 10 Oeste 21 Noroeste 0 925.4 -2 29
2019-06-10 15:00:00 20 6 Este 17 Sur 0 926 -1.6 37
2019-06-10 14:00:00 19 8 Nordeste 22 Este 0 926.8 -1 41
2019-06-10 13:00:00 17.5 7 Este 17 Nordeste 0 927.4 -0.6 46
2019-06-10 12:00:00 16.9 5 Nordeste 17 Nordeste 0 927.6 -0.3 50
2019-06-10 11:00:00 15.3 6 Este 15 Este 0 927.8 0.1 58
2019-06-10 10:00:00 13.7 6 Este 13 Este 0 928 0.5 67
2019-06-10 09:00:00 11.2 3 Este 8 Este 0 927.9 0.7 77
2019-06-10 08:00:00 7.9 0 Calma 4 Noroeste 0 927.7 0.1 89
2019-06-10 07:00:00 5.3 -- -- -- -- 0 927.5 -0.4 91
2019-06-10 06:00:00 6.7 0 Calma 8 Noroeste 0 927.2 -1.2 92
2019-06-10 05:00:00 7.4 6 Norte 8 Norte 0 927.6 -1 89
2019-06-10 04:00:00 8.6 0 Calma 11 Nordeste 0 927.9 -0.3 84
2019-06-10 03:00:00 9 9 Nordeste 11 Nordeste 0 928.4 0.5 81
2019-06-10 02:00:00 10 8 Norte 18 Norte 0 928.6 1.1 74
2019-06-10 01:00:00 12 11 Oeste 21 Oeste 0 928.2 1.6 65
2019-06-10 00:00:00 12.7 12 Noroeste 21 Noroeste 0 927.9 1.8 62
2019-06-09 23:00:00 14.2 10 Noroeste 30 Noroeste 0 927.5 1.9 57
2019-06-09 22:00:00 16.5 18 Noroeste 37 Noroeste 0 926.6 1.3 49
2019-06-09 21:00:00 18.8 22 Noroeste 37 Oeste 0 926.1 0.8 42
2019-06-09 20:00:00 20.3 23 Noroeste 37 Noroeste 0 925.6 0.3 36
2019-06-09 19:00:00 21.1 25 Oeste 41 Oeste 0 925.3 -0.2 32
2019-06-09 18:00:00 22.5 17 Oeste 37 Noroeste 0 925.3 -0.6 30
2019-06-09 17:00:00 22.8 21 Noroeste 41 Oeste 0 925.3 -1 28
2019-06-09 16:00:00 22.6 20 Oeste 33 Oeste 0 925.5 -1.1 31
2019-06-09 15:00:00 21.8 20 Noroeste 32 Noroeste 0 925.9 -1.1 31
2019-06-09 14:00:00 20.7 12 Noroeste 30 Oeste 0 926.3 -0.8 38
2019-06-09 13:00:00 19.4 12 Oeste 24 Oeste 0 926.6 -0.6 44
2019-06-09 12:00:00 17.9 14 Oeste 28 Oeste 0 927 -0.1 50
2019-06-09 11:00:00 15.9 16 Oeste 26 Oeste 0 927.1 0.3 56
2019-06-09 10:00:00 13.5 15 Oeste 26 Oeste 0 927.2 0.9 65
2019-06-09 09:00:00 11.4 16 Oeste 24 Oeste 0 927.1 1 76
2019-06-09 08:00:00 8.6 8 Oeste 13 Oeste 0 926.8 0.5 90
2019-06-09 07:00:00 6.7 10 Oeste 13 Oeste 0 926.3 -0.3 91
2019-06-09 06:00:00 7 9 Sudoeste 11 Sudoeste 0 926.1 -0.8 90
2019-06-09 05:00:00 8.5 8 Sudoeste 11 Sudoeste 0 926.3 -0.8 85
2019-06-09 04:00:00 10.1 10 Oeste 21 Oeste 0 926.6 -0.4 81
2019-06-09 03:00:00 11.2 13 Oeste 18 Oeste 0 926.9 0.1 69
2019-06-09 02:00:00 10.7 6 Sudoeste 15 Oeste 0 927.1 0.5 70
2019-06-09 01:00:00 12.6 7 Oeste 15 Noroeste 0 927 1.1 65
2019-06-09 00:00:00 13.4 13 Noroeste 18 Noroeste 0 926.8 1.3 63
2019-06-08 23:00:00 16.6 8 Noroeste 21 Noroeste 0 926.6 1.2 49
2019-06-08 22:00:00 18.8 14 Noroeste 21 Oeste 0 925.9 0.8 39
2019-06-08 21:00:00 20.4 10 Oeste 22 Oeste 0 925.5 0.2 34
2019-06-08 20:00:00 23.4 17 Oeste 32 Sudoeste 0 925.4 -0.5 25
2019-06-08 19:00:00 25.1 16 Oeste 28 Oeste 0 925.1 -1.3 23
2019-06-08 18:00:00 24.6 6 Oeste 18 Noroeste 0 925.3 -1.8 22
2019-06-08 17:00:00 25.1 13 Oeste 22 Oeste 0 925.9 -1.9 24
2019-06-08 16:00:00 23.1 6 Noroeste 17 Noroeste 0 926.4 -1.8 26
2019-06-08 15:00:00 22.6 5 Nordeste 18 Este 0 927.1 -1.8 26
2019-06-08 14:00:00 21.7 9 Sudeste 22 Este 0 927.8 -1.5 28
2019-06-08 13:00:00 19.7 12 Nordeste 28 Nordeste 0 928.2 -1.5 31
2019-06-08 12:00:00 18 17 Este 32 Este 0 928.9 -0.9 36
2019-06-08 11:00:00 15.8 16 Este 24 Este 0 929.3 -0.7 45
2019-06-08 10:00:00 13.3 13 Este 22 Este 0 929.7 -0.5 53
2019-06-08 09:00:00 10.7 3 Este 9 Nordeste 0 929.8 -0.3 67
2019-06-08 08:00:00 6.5 0 Calma 5 Nordeste 0 930 -0.1 84
2019-06-08 07:00:00 4.3 3 Norte -- -- 0 930.2 -0.1 91
2019-06-08 06:00:00 4.6 0 Calma 8 Sudeste 0 930.1 -0.3 88
2019-06-08 05:00:00 6.3 6 Sur 11 Sudeste 0 930.1 -0.3 79
2019-06-08 04:00:00 7.6 6 Sudeste 18 Este 0 930.3 0 71
2019-06-08 03:00:00 8.3 8 Este 13 Este 0 930.4 0.2 68
2019-06-08 02:00:00 8.1 2 Noroeste 8 Norte 0 930.4 0.9 74
2019-06-08 01:00:00 8.5 5 Noroeste 9 Noroeste 0 930.3 1.4 74
2019-06-08 00:00:00 9.3 3 Norte 9 Norte 0 930.2 1.5 68
2019-06-07 23:00:00 10.2 9 Norte 15 Norte 0 929.5 1.1 65
2019-06-07 22:00:00 12.8 7 Noroeste 13 Norte 0 928.9 1 56
2019-06-07 21:00:00 16 8 Noroeste 30 Norte 0 928.7 0.9 41
2019-06-07 20:00:00 16.4 10 Noroeste 22 Norte 0 928.4 0.7 37
2019-06-07 19:00:00 17.8 13 Oeste 26 Noroeste 0 927.9 0.3 34
2019-06-07 18:00:00 17.1 8 Noroeste 30 Oeste 0 927.8 0.5 36
2019-06-07 17:00:00 17.8 18 Oeste 30 Oeste 0 927.7 0.5 34
2019-06-07 16:00:00 16.8 18 Oeste 32 Noroeste 0 927.6 0.7 37
2019-06-07 15:00:00 16.1 17 Oeste 35 Noroeste 0 927.3 0.9 42
2019-06-07 14:00:00 15.2 17 Noroeste 32 Noroeste 0 927.2 1.4 48
2019-06-07 13:00:00 13.8 16 Oeste 32 Oeste 0 926.9 1.7 53
2019-06-07 12:00:00 12.9 19 Oeste 33 Oeste 0 926.4 1.9 56
2019-06-07 11:00:00 10.5 18 Noroeste 33 Oeste 0 925.8 2.1 65
2019-06-07 10:00:00 10.1 20 Oeste 30 Oeste 0 925.2 2.3 70
2019-06-07 09:00:00 9 23 Oeste 33 Oeste 0 924.5 2.5 77
2019-06-07 08:00:00 7.9 19 Oeste 32 Oeste 0 923.7 2.3 83
2019-06-07 07:00:00 7.5 18 Oeste 32 Oeste 0 922.9 2.1 87
2019-06-07 06:00:00 7.3 18 Sudoeste 33 Oeste 0 922 1.6 89
2019-06-07 05:00:00 6.7 19 Sudoeste 37 Sudoeste 0 921.4 1.6 89
2019-06-07 04:00:00 6.8 21 Oeste 35 Oeste 0 920.8 1.7 90
2019-06-07 03:00:00 7.2 19 Oeste 37 Oeste 0 920.4 1.9 91
2019-06-07 02:00:00 8.4 24 Oeste 41 Oeste 0 919.8 1.8 89
2019-06-07 01:00:00 8.8 26 Oeste 45 Oeste 0.7 919.1 2.8 88
2019-06-07 00:00:00 9.5 24 Oeste 42 Oeste 0.9 918.5 2.7 92
2019-06-06 23:00:00 10.5 26 Oeste 67 Sudoeste 2 918 2 92
2019-06-06 22:00:00 14.6 45 Sudoeste 72 Sudoeste 0 916.3 0.7 65
2019-06-06 21:00:00 16.3 51 Sudoeste 74 Sudoeste 0 915.8 -0.8 52
2019-06-06 20:00:00 18.1 51 Sudoeste 78 Sudoeste 0 916 -1.1 40
2019-06-06 19:00:00 20.2 50 Sudoeste 74 Sudoeste 0 915.6 -2.1 35
2019-06-06 18:00:00 20.5 48 Sudoeste 68 Sudoeste 0 916.6 -2.2 34
2019-06-06 17:00:00 20.3 45 Sudoeste 63 Sudoeste 0 917.1 -2.2 31
2019-06-06 16:00:00 20.2 37 Sudoeste 55 Sudoeste 0 917.7 -2.3 31
2019-06-06 15:00:00 19.7 38 Sudoeste 54 Sur 0 918.8 -1.9 25
2019-06-06 14:00:00 19.3 31 Sudoeste 48 Oeste 0 919.3 -2 22
2019-06-06 13:00:00 18.2 26 Sudoeste 41 Sudoeste 0 920 -2 26
2019-06-06 12:00:00 15.9 12 Sudoeste 24 Sur 0 920.7 -1.9 41
2019-06-06 11:00:00 13.2 8 Sur 18 Sur 0 921.3 -1.6 51
2019-06-06 10:00:00 10.5 5 Oeste 11 Sudoeste 0 922 -0.9 64
2019-06-06 09:00:00 8.4 4 Oeste 8 Oeste 0 922.6 -0.7 72
2019-06-06 08:00:00 5.3 4 Sur 8 Sudeste 0 922.9 -0.5 81
2019-06-06 07:00:00 3.9 2 Sur 8 Sudeste 0 922.9 -0.8 82
2019-06-06 06:00:00 4 0 Calma 9 Oeste 0 923.3 -0.6 81
2019-06-06 05:00:00 4.7 8 Oeste 13 Oeste 0 923.4 -0.7 79
2019-06-06 04:00:00 5.7 6 Oeste 11 Oeste 0 923.7 -0.6 77
2019-06-06 03:00:00 6 8 Oeste 13 Oeste 0 923.9 -0.3 79
2019-06-06 02:00:00 7.6 10 Oeste 15 Noroeste 0 924.1 0.4 70
2019-06-06 01:00:00 9.9 13 Noroeste 22 Noroeste 0 924.3 1.1 61
2019-06-06 00:00:00 11.6 12 Noroeste 21 Noroeste 0 924.2 1.4 55
2019-06-05 23:00:00 12 12 Noroeste 24 Noroeste 0 923.7 0.9 54
2019-06-05 22:00:00 12.6 15 Noroeste 32 Noroeste 0 923.2 0.6 51
2019-06-05 21:00:00 14 19 Noroeste 33 Oeste 0 922.8 0.1 48
2019-06-05 20:00:00 15 20 Noroeste 41 Oeste 0 922.8 0.1 43
2019-06-05 19:00:00 16 24 Oeste 37 Oeste 0 922.6 -0.5 40
2019-06-05 18:00:00 17.4 21 Oeste 41 Oeste 0 922.7 -0.5 34
2019-06-05 17:00:00 17.8 24 Oeste 37 Noroeste 0 922.7 -0.6 32
2019-06-05 16:00:00 16.8 21 Oeste 37 Oeste 0 923.1 -0.2 37
2019-06-05 15:00:00 17.5 23 Oeste 41 Oeste 0 923.2 -0.2 36
2019-06-05 14:00:00 15.7 28 Noroeste 48 Oeste 0 923.3 0.2 41
2019-06-05 13:00:00 15.6 28 Oeste 50 Noroeste 0 923.3 0.5 43
2019-06-05 12:00:00 14.1 24 Oeste 46 Oeste 0 923.4 1.2 48
2019-06-05 11:00:00 12.7 26 Oeste 42 Noroeste 0 923.1 1.3 53
2019-06-05 10:00:00 11.4 26 Oeste 42 Oeste 0 922.8 1.6 62
2019-06-05 09:00:00 10 24 Oeste 37 Oeste 0 922.2 1.5 69
2019-06-05 08:00:00 8.3 17 Oeste 28 Oeste 0 921.8 1.1 81
2019-06-05 07:00:00 7.2 16 Oeste 28 Oeste 0 921.2 0.5 85
2019-06-05 06:00:00 7.9 18 Oeste 32 Oeste 0 920.7 -0.1 82
2019-06-05 05:00:00 8.9 22 Oeste 35 Oeste 0 920.7 0 76
2019-06-05 04:00:00 10.1 29 Oeste 42 Noroeste 0 920.7 0 70
2019-06-05 03:00:00 10.8 22 Oeste 35 Noroeste 0 920.8 0.5 70
2019-06-05 02:00:00 11.4 21 Noroeste 37 Oeste 0 920.7 0.5 71
2019-06-05 01:00:00 12.3 28 Oeste 42 Noroeste 0 920.7 0.9 67
2019-06-05 00:00:00 14.5 21 Noroeste 32 Noroeste 0 920.3 0.5 49
2019-06-04 23:00:00 15 17 Noroeste 30 Oeste 0 920.2 0.2 55
2019-06-04 22:00:00 16 18 Noroeste 28 Noroeste 0 919.8 -0.5 56
2019-06-04 21:00:00 17.2 16 Noroeste 32 Oeste 0 919.8 -0.5 54
2019-06-04 20:00:00 18.8 22 Oeste 37 Noroeste 0 920 0.3 51
2019-06-04 19:00:00 19 27 Oeste 48 Oeste 0 920.3 0.3 54
2019-06-04 18:00:00 19.1 31 Noroeste 48 Noroeste 0 920.3 -0.3 59
2019-06-04 17:00:00 22.4 23 Noroeste 48 Sudoeste 0 919.7 -1.5 42
2019-06-04 16:00:00 23.2 27 Oeste 42 Oeste 0 920 -1.7 37
2019-06-04 15:00:00 23.2 21 Oeste 46 Oeste 0 920.6 -1.4 39
2019-06-04 14:00:00 22.1 24 Oeste 39 Oeste 0 921.2 -1 41
2019-06-04 13:00:00 20.5 24 Oeste 45 Sudoeste 0 921.7 -0.9 43
2019-06-04 12:00:00 18.8 21 Oeste 33 Oeste 0 922 -0.4 50
2019-06-04 11:00:00 17.4 21 Oeste 35 Oeste 0 922.2 0 57
2019-06-04 10:00:00 15.9 23 Oeste 33 Oeste 0 922.6 0.9 64
2019-06-04 09:00:00 13.8 22 Oeste 33 Oeste 0 922.4 0.7 73
2019-06-04 08:00:00 12.9 19 Oeste 30 Oeste 0 922.2 0.4 80
2019-06-04 07:00:00 12.4 17 Oeste 32 Oeste 0 921.7 -0.5 86
2019-06-04 06:00:00 12.6 16 Oeste 26 Oeste 0 921.7 -1 89
2019-06-04 05:00:00 12.9 12 Oeste 18 Oeste 0 921.8 -1.5 87
2019-06-04 04:00:00 14.1 13 Oeste 21 Oeste 0 922.2 -1.5 83
2019-06-04 03:00:00 14.6 13 Oeste -- -- -- 922.7 -1.2 78
2019-06-04 02:00:00 16.1 15 Oeste 24 Oeste 0 923.3 -0.3 72
2019-06-04 01:00:00 17.9 15 Oeste 33 Oeste 0 923.7 0.7 66
2019-06-04 00:00:00 19.7 21 Oeste 35 Oeste 0 923.9 1.1 58
2019-06-03 23:00:00 21.4 17 Oeste 28 Oeste 0 923.6 0.8 55
2019-06-03 22:00:00 24.8 22 Sudoeste 39 Sudoeste 0 923 -0.1 28
2019-06-03 21:00:00 27.2 29 Sudoeste 46 Sudoeste 0 922.8 -0.5 18
2019-06-03 20:00:00 28.9 29 Sudoeste 48 Sudoeste 0 922.8 -0.9 14
2019-06-03 19:00:00 29.8 29 Sudoeste 46 Sudoeste 0 923.1 -0.9 15
2019-06-03 18:00:00 30.9 29 Sudoeste 63 Sur 0 923.3 -1.3 16
2019-06-03 17:00:00 30.7 19 Oeste 37 Noroeste 0 923.7 -1.7 18
2019-06-03 16:00:00 30.3 20 Oeste 35 Noroeste 0 924 -2.3 18
2019-06-03 15:00:00 29.5 14 Oeste 41 Oeste 0 924.6 -1.9 17
2019-06-03 14:00:00 27 9 Noroeste 21 Noroeste 0 925.4 -1.2 24
2019-06-03 13:00:00 24.7 7 Noroeste 15 Noroeste 0 926.3 -0.6 30
2019-06-03 12:00:00 23.1 5 Noroeste 15 Oeste 0 926.5 -0.4 36
2019-06-03 11:00:00 20.9 9 Oeste 15 Oeste 0 926.6 -0.2 43
2019-06-03 10:00:00 18.7 8 Oeste 11 Oeste 0 926.9 0.2 51
2019-06-03 09:00:00 17.3 8 Oeste 13 Sudoeste 0 926.9 0.4 58
2019-06-03 08:00:00 16 5 Sudoeste 8 Sudoeste 0 926.8 0.3 56
2019-06-03 07:00:00 15 3 Este 9 Oeste 0 926.7 0.1 62
2019-06-03 06:00:00 15.6 8 Oeste 11 Oeste 0 926.5 -0.5 62
2019-06-03 05:00:00 16.7 0 Calma -- -- 0 926.5 -0.9 54
2019-06-03 04:00:00 16.5 7 Oeste 9 Sudoeste 0 926.6 -1 52
2019-06-03 03:00:00 17.2 2 Oeste -- -- -- 927 -0.3 54
2019-06-03 02:00:00 18.5 8 Sudoeste 13 Oeste 0 927.4 0.4 43
2019-06-03 01:00:00 19.7 9 Oeste 11 Oeste 0 927.6 1 40
2019-06-03 00:00:00 20 5 Noroeste 15 Noroeste 0 927.3 1.3 42
2019-06-02 23:00:00 21 10 Noroeste 22 Noroeste 0 927 1.1 42
2019-06-02 22:00:00 23.5 15 Noroeste 30 Noroeste 0 926.6 0.8 32
2019-06-02 21:00:00 25 12 Noroeste 30 Noroeste 0 926 0.4 34
2019-06-02 20:00:00 27.2 16 Noroeste 30 Noroeste 0 925.9 0 26
2019-06-02 19:00:00 28.1 18 Noroeste 41 Noroeste 0 925.8 -0.4 25
2019-06-02 18:00:00 30 21 Oeste 37 Oeste 0 925.6 -1 22
2019-06-02 17:00:00 30.3 23 Oeste 37 Oeste 0 925.9 -1.5 20
2019-06-02 16:00:00 30.6 23 Noroeste 42 Oeste 0 926.2 -1.8 20
2019-06-02 15:00:00 30.2 23 Oeste 37 Oeste 0 926.6 -1.7 22
2019-06-02 14:00:00 29.9 21 Oeste 35 Noroeste 0 927.4 -1.1 22
2019-06-02 13:00:00 28.9 8 Noroeste 21 Noroeste 0 928 -0.5 21
2019-06-02 12:00:00 27 6 Noroeste 17 Oeste 0 928.3 0 24
2019-06-02 11:00:00 24.7 9 Noroeste 15 Noroeste 0 928.5 0.2 28
2019-06-02 10:00:00 21.2 7 Oeste 9 Oeste 0 928.5 0.5 44
2019-06-02 09:00:00 18.9 2 Sudeste 5 Este 0 928.3 0.4 53
2019-06-02 08:00:00 15.1 0 Calma 8 Oeste 0 928.3 0.4 71
2019-06-02 07:00:00 13 9 Sur 11 Sur 0 928 0 68
2019-06-02 06:00:00 12.8 0 Calma 5 Este 0 927.9 -0.3 82
2019-06-02 05:00:00 13.7 2 Sur 5 Sur 0 927.9 -0.3 73
2019-06-02 04:00:00 15.2 4 Sur 9 Sur 0 928 -0.2 65
2019-06-02 03:00:00 17.1 0 Calma -- -- -- 928.2 0.1 50
2019-06-02 02:00:00 18.3 5 Oeste 15 Oeste 0 928.2 0.6 51
2019-06-02 01:00:00 19.2 15 Oeste 17 Oeste 0 928.2 1.2 50
2019-06-02 00:00:00 20.4 12 Oeste 26 Oeste 0 928.1 1.4 46
2019-06-01 23:00:00 22.6 10 Oeste 24 Oeste 0 927.6 1.1 38
2019-06-01 22:00:00 25 10 Oeste 13 Oeste 0 927 0.5 38
2019-06-01 21:00:00 29.3 8 Noroeste 18 Oeste 0 926.7 -0.1 30
2019-06-01 20:00:00 31 13 Noroeste 24 Noroeste 0 926.5 -0.8 25
2019-06-01 19:00:00 30.7 16 Noroeste 22 Noroeste 0 926.5 -1.3 22
2019-06-01 18:00:00 32 7 Noroeste 26 Noroeste 0 926.8 -1.6 19
2019-06-01 17:00:00 32.8 11 Noroeste 24 Oeste 0 927.3 -1.7 18
2019-06-01 16:00:00 32 11 Noroeste 22 Noroeste 0 927.8 -1.8 17
2019-06-01 15:00:00 31.6 13 Norte 30 Norte 0 928.4 -1.4 17
2019-06-01 14:00:00 30.8 7 Norte 21 Nordeste 0 929 -0.9 18
2019-06-01 13:00:00 30 7 Oeste 13 Sudeste 0 929.6 -0.4 17
2019-06-01 12:00:00 28 4 Este 13 Norte 0 929.8 -0.1 29
2019-06-01 11:00:00 24.5 3 Oeste 9 Este 0 929.9 0.1 34
2019-06-01 10:00:00 20.9 5 Sudeste 11 Este 0 930 0.6 43
2019-06-01 09:00:00 15.8 0 Calma 9 Norte 0 929.9 0.7 51
2019-06-01 08:00:00 11.8 5 Sudeste 8 Sudeste 0 929.8 0.5 73
2019-06-01 07:00:00 9.4 2 Nordeste 4 Nordeste 0 929.4 0.2 83
2019-06-01 06:00:00 10 4 Sudeste 5 Sudeste 0 929.2 -0.2 81
2019-06-01 05:00:00 10 2 Oeste 11 Oeste 0 929.3 -0.3 75
2019-06-01 04:00:00 11.4 5 Sudeste 9 Sudeste 0 929.2 -0.5 70
2019-06-01 03:00:00 12.4 3 Norte -- -- -- 929.4 -0.3 77
2019-06-01 02:00:00 13.9 3 Sudeste 8 Sur 0 929.6 0 70
2019-06-01 01:00:00 15.4 4 Sur 8 Sudeste 0 929.7 0.5 61
2019-06-01 00:00:00 19.3 0 Calma 5 Nordeste 0 929.7 0.7 38
2019-05-31 23:00:00 20.2 4 Nordeste 11 Norte 0 929.6 0.6 34
2019-05-31 22:00:00 23.1 8 Norte 11 Norte 0 929.2 -0.1 38
2019-05-31 21:00:00 29.5 8 Nordeste 11 Este 0 929 -0.6 17
2019-05-31 20:00:00 31.1 7 Este 18 Sudeste 0 929 -1 13
2019-05-31 19:00:00 31.1 5 Nordeste 18 Este 0 929.3 -1.1 15
2019-05-31 18:00:00 31.3 8 Sur 21 Norte 0 929.6 -1.3 14
2019-05-31 17:00:00 31.1 6 Norte 24 Norte 0 930 -1.3 16
2019-05-31 16:00:00 30.4 6 Nordeste 26 Nordeste 0 930.4 -1.4 18
2019-05-31 15:00:00 29.7 8 Norte 21 Nordeste 0 930.9 -1.1 21
2019-05-31 14:00:00 28.6 9 Nordeste 21 Nordeste 0 931.3 -0.8 20
2019-05-31 13:00:00 28.4 10 Este 24 Este 0 931.8 -0.4 23
2019-05-31 12:00:00 26.3 15 Este 22 Este 0 932 -0.2 26
2019-05-31 11:00:00 23.8 15 Este 22 Nordeste 0 932.1 0 31
2019-05-31 10:00:00 20.3 13 Este 18 Este 0 932.2 0.5 39
2019-05-31 09:00:00 16.2 4 Este 8 Sudeste 0 932.2 0.6 51
2019-05-31 08:00:00 10.9 4 Sudoeste 9 Oeste 0 932.1 0.4 72
2019-05-31 07:00:00 9.2 0 Calma -- -- 0 931.7 -0.2 77
2019-05-31 06:00:00 9.6 0 Calma 9 Este 0 931.6 -0.7 76
2019-05-31 05:00:00 10.6 7 Este 9 Sur 0 931.7 -1 70
2019-05-31 04:00:00 12.3 5 Sudoeste 11 Nordeste 0 931.9 -0.8 59
2019-05-31 03:00:00 12.7 6 Este -- -- -- 932.3 -0.2 62
2019-05-31 02:00:00 14.9 4 Nordeste 15 Este 0 932.7 0.5 52
2019-05-31 01:00:00 17.3 13 Sudeste 22 Este 0 932.7 1.2 44
2019-05-31 00:00:00 20 18 Este 30 Este 0 932.5 1.3 37
2019-05-30 23:00:00 22.9 17 Nordeste 30 Nordeste 0 932.2 1.1 30
2019-05-30 22:00:00 22.2 14 Nordeste 22 Nordeste 0 931.5 0.2 30
2019-05-30 21:00:00 27.1 16 Nordeste 24 Este 0 931.2 -0.5 21
2019-05-30 20:00:00 29.3 15 Este 28 Nordeste 0 931.1 -1.1 17
2019-05-30 19:00:00 29.4 16 Nordeste 32 Nordeste 0 931.3 -1.2 17
2019-05-30 18:00:00 29.4 20 Este 30 Este 0 931.7 -1.3 17
2019-05-30 17:00:00 29 14 Este 30 Este 0 932.2 -1.2 18
2019-05-30 16:00:00 28.4 18 Nordeste 37 Este 0 932.5 -1.3 18
2019-05-30 15:00:00 27.3 18 Este 33 Este 0 933 -1.1 21
2019-05-30 14:00:00 25.6 18 Este 30 Este 0 933.4 -0.8 24
2019-05-30 13:00:00 24.4 18 Este 28 Este 0 933.8 -0.7 27
2019-05-30 12:00:00 22.4 16 Este 26 Este 0 934.1 -0.3 34
2019-05-30 11:00:00 19.4 14 Este 24 Este 0 934.2 0.1 43
2019-05-30 10:00:00 16.5 10 Este 18 Este 0 934.5 0.8 54
2019-05-30 09:00:00 14.3 11 Este 17 Este 0 934.4 1.2 60
2019-05-30 08:00:00 10.6 7 Este 11 Este 0 934.1 0.8 75
2019-05-30 07:00:00 8.5 4 Sudeste 13 Este 0 933.7 0.3 81
2019-05-30 06:00:00 9 8 Este 13 Este 0 933.2 -0.6 78
2019-05-30 05:00:00 9.6 5 Nordeste 18 Este 0 933.3 -0.8 76
2019-05-30 04:00:00 11.2 13 Este 18 Este 0 933.4 -0.5 72
2019-05-30 03:00:00 10.5 2 Nordeste -- -- -- 933.8 0.1 71
2019-05-30 02:00:00 12 2 Este 18 Este 0 934.1 1.1 64
2019-05-30 01:00:00 13.5 11 Este 18 Este 0 933.9 1.5 60
2019-05-30 00:00:00 15.3 9 Sudeste 21 Este 0 933.7 1.4 54
2019-05-29 23:00:00 16.8 14 Este 22 Este 0 933 1.2 52
2019-05-29 22:00:00 19.3 16 Este 26 Este 0 932.4 0.7 40
2019-05-29 21:00:00 22.1 20 Este 35 Este 0 932.3 0.6 33
2019-05-29 20:00:00 23.5 22 Este 37 Nordeste 0 931.8 -- 30
2019-05-29 19:00:00 24.3 24 Este 37 Nordeste 0 931.7 -- 27
2019-05-29 18:00:00 24 24 Nordeste -- -- -- 931.7 -0.8 29
2019-05-29 17:00:00 -- -- -- -- -- -- -- -- --
2019-05-29 16:00:00 -- -- -- -- -- -- -- -- --
2019-05-29 15:00:00 22.5 22 Este 35 Este 0 932.5 -0.6 32
2019-05-29 14:00:00 20.5 21 Este 35 Este 0 932.8 -0.4 36
2019-05-29 13:00:00 19 22 Este 35 Este 0 933 -0.3 38
2019-05-29 12:00:00 17.3 24 Este 37 Este 0 933.1 0 41
2019-05-29 11:00:00 15.8 27 Este 42 Este 0 933.2 0.5 44
2019-05-29 10:00:00 13.4 29 Este 39 Este 0 933.3 1.1 50
2019-05-29 09:00:00 10.8 21 Este 30 Este 0 933.1 0.9 60
2019-05-29 08:00:00 8.3 13 Este 21 Este 0 932.7 0.8 69
2019-05-29 07:00:00 6.2 11 Este 17 Este 0 932.2 0.3 78
2019-05-29 06:00:00 6.3 9 Sudeste 13 Este 0 932.2 0.5 75
2019-05-29 05:00:00 7.6 9 Este 26 Este 0 931.9 0.3 69
2019-05-29 04:00:00 8.8 20 Este 28 Este 0 931.9 1 64
2019-05-29 03:00:00 9.6 12 Este 22 Este 0 931.7 1.5 59
2019-05-29 02:00:00 10.8 14 Este 30 Este 0 931.6 2.5 52
2019-05-29 01:00:00 12.3 18 Este 39 Este 0 930.9 3 51
2019-05-29 00:00:00 14.2 30 Este 46 Este 0 930.2 2.8 46
2019-05-28 23:00:00 16.4 32 Este 41 Este 0 929.1 1.9 45
2019-05-28 22:00:00 18.6 17 Nordeste 33 Nordeste 0 927.9 0.8 32
2019-05-28 21:00:00 21.7 18 Nordeste 30 Norte 0 927.4 0 27
2019-05-28 20:00:00 22.9 17 Nordeste 35 Nordeste 0 927.2 0 23
2019-05-28 19:00:00 23.2 21 Nordeste 32 Nordeste 0 927.1 -0.3 24
2019-05-28 18:00:00 23.2 24 Norte 37 Norte 0 927.4 -0.3 24
2019-05-28 17:00:00 22.9 17 Norte 35 Nordeste 0 927.2 -0.7 24
2019-05-28 16:00:00 22.4 14 Nordeste 33 Nordeste 0 927.4 -0.7 25
2019-05-28 15:00:00 21 14 Nordeste 32 Este 0 927.7 -0.5 26
2019-05-28 14:00:00 20.1 14 Este 32 Este 0 927.9 0 31
2019-05-28 13:00:00 18.6 20 Este 32 Este 0 928.1 0.3 35
2019-05-28 12:00:00 16.7 18 Este 30 Este 0 928.2 0.7 40
2019-05-28 11:00:00 14.9 20 Este 30 Este 0 927.9 1 46
2019-05-28 10:00:00 13.1 20 Este 32 Este 0 927.8 1.5 54
2019-05-28 09:00:00 11 23 Este 33 Este 0 927.5 1.7 64
2019-05-28 08:00:00 9.3 19 Este 28 Este 0 926.9 1.3 72
2019-05-28 07:00:00 8.7 16 Este 30 Nordeste 0 926.3 0.9 75
2019-05-28 06:00:00 8.9 22 Nordeste 32 Nordeste 0 925.8 0.5 79
2019-05-28 05:00:00 9.9 19 Nordeste 33 Este 0 925.6 0.2 75
2019-05-28 04:00:00 11 18 Nordeste 28 Este 0 925.4 0.2 69
2019-05-28 03:00:00 12 16 Nordeste 32 Nordeste 0 925.3 1.1 67
2019-05-28 02:00:00 13.2 22 Nordeste 32 Nordeste 0 925.4 2.1 68
2019-05-28 01:00:00 14.9 21 Nordeste 41 Este 0 925.2 2.3 64
2019-05-28 00:00:00 18 27 Nordeste 37 Nordeste 0 924.2 1.3 53
2019-05-27 23:00:00 18.7 9 Nordeste 15 Nordeste 0 923.3 0.5 45
2019-05-27 22:00:00 20.3 9 Norte 13 Norte 0 922.9 0.2 43
2019-05-27 21:00:00 24.1 8 Norte 22 Noroeste 0 922.9 0 31
2019-05-27 20:00:00 24.9 12 Norte 24 Norte 0 922.8 -0.7 29
2019-05-27 19:00:00 25.9 18 Norte 30 Norte 0 922.7 -1.1 27
2019-05-27 18:00:00 26 9 Norte 26 Norte 0 922.9 -1.4 28
2019-05-27 17:00:00 25.5 12 Norte 32 Este 0 923.5 -1.5 32
2019-05-27 16:00:00 25.5 15 Norte 28 Norte 0 923.8 -1.4 32
2019-05-27 15:00:00 24.4 9 Norte 37 Norte 0 924.3 -1.3 35
2019-05-27 14:00:00 23.7 13 Nordeste 24 Norte 0 925 -0.9 35
2019-05-27 13:00:00 23 11 Nordeste 28 Nordeste 0 925.2 -0.9 36
2019-05-27 12:00:00 21.5 13 Nordeste 30 Nordeste 0 925.6 -0.5 38
2019-05-27 11:00:00 20.5 14 Este 22 Este 0 925.9 -0.1 41
2019-05-27 10:00:00 18.4 18 Este 24 Sudeste 0 926.1 0.4 45
2019-05-27 09:00:00 15.6 11 Sudeste 17 Sudeste 0 926.1 0.5 57
2019-05-27 08:00:00 12.3 7 Sudeste 13 Este 0 926 0.6 72
2019-05-27 07:00:00 11.9 7 Este 21 Este 0 925.7 -0.2 71
2019-05-27 06:00:00 13.7 13 Este 22 Nordeste 0 925.6 -0.7 63
2019-05-27 05:00:00 12.5 12 Este 18 Este 0 925.4 -1.1 70
2019-05-27 04:00:00 12.6 8 Este 11 Este 0 925.9 -0.8 69
2019-05-27 03:00:00 13.6 9 Este 13 Este 0 926.3 -0.5 66
2019-05-27 02:00:00 13.9 10 Este -- -- 0 926.5 -0.1 65
2019-05-27 01:00:00 15.1 8 Este 11 Este 0 926.7 0.4 61
2019-05-27 00:00:00 15.7 0 Calma 5 Sur 0 926.8 0.4 62
2019-05-26 23:00:00 17.8 8 Sur -- -- 0 926.6 0.1 49
2019-05-26 22:00:00 20.7 10 Sudeste 13 Sudeste 0 926.3 -0.5 41
2019-05-26 21:00:00 25 9 Este 18 Este 0 926.4 -0.8 30
2019-05-26 20:00:00 25.6 11 Nordeste 26 Este 0 926.5 -1.1 28
2019-05-26 19:00:00 26.1 15 Nordeste 30 Nordeste 0 926.8 -1.4 28
2019-05-26 18:00:00 25.9 10 Nordeste 30 Nordeste 0 927.2 -1.6 28
2019-05-26 17:00:00 25.2 18 Nordeste 33 Nordeste 0 927.6 -1.7 29
2019-05-26 16:00:00 23.9 15 Nordeste 30 Nordeste 0 928.2 -1.8 33
2019-05-26 15:00:00 22.4 10 Nordeste 26 Este 0 928.8 -1.4 37
2019-05-26 14:00:00 20.8 13 Nordeste 32 Nordeste 0 929.3 -1.2 40
2019-05-26 13:00:00 19.3 14 Nordeste 33 Nordeste 0 930 -0.8 44
2019-05-26 12:00:00 17.1 11 Nordeste 24 Este 0 930.2 -0.8 51
2019-05-26 11:00:00 15.6 15 Este 26 Nordeste 0 930.5 -0.5 53
2019-05-26 10:00:00 13.7 14 Este 22 Este 0 930.8 0.1 60
2019-05-26 09:00:00 11.1 6 Este 13 Este 0 931 0.5 68
2019-05-26 08:00:00 8.5 5 Sudeste 9 Sudeste 0 931 0.5 78
2019-05-26 07:00:00 7.3 2 Sur 9 Sur 0 930.7 0.1 82
2019-05-26 06:00:00 7.3 3 Este 15 Nordeste 0 930.5 -0.2 80
2019-05-26 05:00:00 8.6 11 Nordeste 17 Este 0 930.5 0 77
2019-05-26 04:00:00 9 7 Nordeste 18 Este 0 930.6 0.2 75
2019-05-26 03:00:00 10.1 11 Este 21 Este 0 930.7 0.5 71
2019-05-26 02:00:00 11.3 13 Este 24 Este 0 930.5 0.8 64
2019-05-26 01:00:00 12.9 17 Este 26 Este 0 930.4 1.4 58
2019-05-26 00:00:00 14.2 14 Este 26 Este 0 930.2 1.4 55
2019-05-25 23:00:00 15.6 13 Este 18 Este 0 929.7 1 50
2019-05-25 22:00:00 17.8 11 Este 22 Este 0 929 0.2 41
2019-05-25 21:00:00 20.6 19 Este 28 Nordeste 0 928.8 0 32
2019-05-25 20:00:00 21.6 23 Nordeste 37 Nordeste 0 928.7 -0.1 26
2019-05-25 19:00:00 21.9 20 Nordeste 39 Este 0 928.8 -0.2 30
2019-05-25 18:00:00 22.1 22 Nordeste 33 Este 0 928.8 -0.6 29
2019-05-25 17:00:00 22.3 21 Este 33 Nordeste 0 928.8 -1.1 29
2019-05-25 16:00:00 21.3 24 Nordeste 37 Este 0 929 -1.4 32
2019-05-25 15:00:00 20.2 26 Este 41 Este 0 929.4 -1.1 35
2019-05-25 14:00:00 18.7 23 Este 42 Este 0 929.9 -0.8 37
2019-05-25 13:00:00 17.8 28 Este 45 Nordeste 0 930.4 -0.3 42
2019-05-25 12:00:00 16.7 26 Nordeste 41 Nordeste 0 930.5 0.2 45
2019-05-25 11:00:00 15.3 29 Este 41 Este 0 930.7 0.8 49
2019-05-25 10:00:00 13.3 27 Este 39 Este 0 930.7 1.2 59
2019-05-25 09:00:00 11.1 17 Este 26 Este 0 930.3 0.9 72
2019-05-25 08:00:00 8 8 Nordeste 13 Este 0 929.9 0.7 87
2019-05-25 07:00:00 6.5 9 Este 13 Este 0 929.5 0.3 88
2019-05-25 06:00:00 7.1 8 Este 18 Este 0 929.4 -0.3 87
2019-05-25 05:00:00 8.1 13 Este 18 Este 0 929.2 -0.5 83
2019-05-25 04:00:00 8.7 12 Este 21 Nordeste 0 929.2 0 81
2019-05-25 03:00:00 9.3 12 Nordeste 22 Este 0 929.7 1 79
2019-05-25 02:00:00 10.3 18 Nordeste 33 Nordeste 0 929.7 1.8 74
2019-05-25 01:00:00 11.4 24 Nordeste 39 Este 0 929.2 2.4 66
2019-05-25 00:00:00 12.8 26 Este 35 Nordeste 0 928.7 2.7 57
2019-05-24 23:00:00 14.1 27 Nordeste 41 Este 0 927.9 2.4 50
2019-05-24 22:00:00 16.4 26 Este 41 Nordeste 0 926.8 1.4 44
2019-05-24 21:00:00 18.9 26 Este 33 Este 0 926 0.5 37
2019-05-24 20:00:00 21.2 18 Nordeste 35 Nordeste 0 925.5 -0.2 30
2019-05-24 19:00:00 21.8 22 Nordeste 41 Nordeste 0 925.4 -0.7 27
2019-05-24 18:00:00 22.5 25 Nordeste 41 Nordeste 0 925.5 -0.8 27
2019-05-24 17:00:00 22 16 Nordeste 39 Nordeste 0 925.7 -0.8 31
2019-05-24 16:00:00 21.6 25 Nordeste 41 Nordeste 0 926.1 -0.6 30
2019-05-24 15:00:00 20.7 21 Nordeste 37 Nordeste 0 926.3 -0.7 33
2019-05-24 14:00:00 19.7 22 Nordeste 35 Este 0 926.5 -0.9 38
2019-05-24 13:00:00 18.2 20 Nordeste 42 Nordeste 0 926.7 -0.4 43
2019-05-24 12:00:00 17.4 23 Nordeste 41 Nordeste 0 927 0 44
2019-05-24 11:00:00 15.8 26 Este 37 Nordeste 0 927.4 1 52
2019-05-24 10:00:00 13.8 30 Nordeste 39 Nordeste 0 927.1 1.2 61
2019-05-24 09:00:00 11.8 22 Nordeste 32 Nordeste 0 927 1.1 71
2019-05-24 08:00:00 10.6 18 Nordeste 30 Nordeste 0 926.4 0.3 78
2019-05-24 07:00:00 9.1 9 Nordeste 18 Nordeste 0 925.9 -0.5 85
2019-05-24 06:00:00 10.2 9 Norte 13 Nordeste 0 925.9 -0.7 85
2019-05-24 05:00:00 10.7 8 Norte 13 Nordeste 0 926.1 -0.7 85
2019-05-24 04:00:00 11.9 11 Norte 17 Nordeste 0 926.4 0 80
2019-05-24 03:00:00 12.2 10 Norte 15 Norte 0 926.6 0.1 79
2019-05-24 02:00:00 12.6 13 Norte 18 Norte 0 926.8 0.7 66
2019-05-24 01:00:00 13.4 10 Oeste 18 Oeste 0 926.4 0.8 64
2019-05-24 00:00:00 14.8 14 Oeste 22 Noroeste 0 926.5 1.4 62
2019-05-23 23:00:00 16.8 15 Noroeste 35 Noroeste 0 926.1 1.1 58
2019-05-23 22:00:00 18.7 21 Noroeste 33 Noroeste 0 925.6 0.8 52
2019-05-23 21:00:00 21 18 Noroeste 32 Oeste 0 925.1 0.1 39
2019-05-23 20:00:00 23.1 23 Noroeste 33 Noroeste 0 925 -0.1 32
2019-05-23 19:00:00 24.3 23 Noroeste 39 Oeste 0 924.8 -0.5 30
2019-05-23 18:00:00 25.4 19 Noroeste 39 Noroeste 0 925 -0.7 27
2019-05-23 17:00:00 25.7 21 Oeste 42 Noroeste 0 925.1 -1.1 28
2019-05-23 16:00:00 25.7 18 Oeste 35 Oeste 0 925.3 -1.3 31
2019-05-23 15:00:00 24.9 15 Noroeste 32 Noroeste 0 925.7 -1.4 34
2019-05-23 14:00:00 23.9 15 Noroeste 28 Noroeste 0 926.2 -0.7 40
2019-05-23 13:00:00 22.5 7 Noroeste 21 Oeste 0 926.6 -0.2 47
2019-05-23 12:00:00 20.7 12 Oeste 22 Noroeste 0 927.1 0.3 55
2019-05-23 11:00:00 17.3 8 Noroeste 11 Noroeste 0 926.9 0.1 68
2019-05-23 10:00:00 15.9 3 Noroeste 8 Este 0 926.8 0 74
2019-05-23 09:00:00 13.6 2 Este 5 Este 0 926.8 0 82
2019-05-23 08:00:00 11.4 0 Calma 4 Oeste 0 926.8 -0.1 87
2019-05-23 07:00:00 10.7 4 Oeste 8 Oeste 0 926.8 -0.1 89
2019-05-23 06:00:00 11.5 6 Oeste 9 Sudoeste 0 926.8 -0.2 87
2019-05-23 05:00:00 12 9 Sudoeste 15 Sudoeste 0 926.9 -0.1 86
2019-05-23 04:00:00 13.5 9 Oeste 18 Oeste 0 926.9 0.1 81
2019-05-23 03:00:00 14.4 14 Oeste 21 Oeste 0 927 0.4 78
2019-05-23 02:00:00 15.1 10 Oeste 21 Oeste 0 927 0.7 68
2019-05-23 01:00:00 15.5 15 Oeste 22 Oeste 0 926.8 1 54
2019-05-23 00:00:00 16.5 5 Oeste 13 Oeste 0 926.6 1.2 48
2019-05-22 23:00:00 19.7 11 Oeste 22 Oeste 0 926.3 1.1 38
2019-05-22 22:00:00 21.7 7 Oeste 24 Oeste 0 925.8 0.7 40
2019-05-22 21:00:00 23.2 11 Oeste 18 Oeste 0 925.4 0.2 35
2019-05-22 20:00:00 23.6 8 Oeste 18 Noroeste 0 925.2 -0.2 33
2019-05-22 19:00:00 26.4 12 Noroeste 26 Norte 0 925.1 -0.8 26
2019-05-22 18:00:00 26.9 8 Norte 21 Norte 0 925.2 -1.2 24
2019-05-22 17:00:00 26.1 6 Norte 21 Noroeste 0 925.4 -1.4 23
2019-05-22 16:00:00 25.7 6 Oeste 21 Oeste 0 925.9 -1.3 25
2019-05-22 15:00:00 24.4 9 Norte 22 Noroeste 0 926.4 -0.9 27
2019-05-22 14:00:00 23.9 7 Norte 17 Nordeste 0 926.8 -0.4 26
2019-05-22 13:00:00 23 6 Este 13 Este 0 927.2 0 29
2019-05-22 12:00:00 20.6 6 Este 13 Este 0 927.3 0.3 39
2019-05-22 11:00:00 17.9 6 Este 13 Este 0 927.2 0.5 47
2019-05-22 10:00:00 15.2 8 Este 13 Este 0 927.2 0.9 53
2019-05-22 09:00:00 12 9 Sudeste 13 Sudeste 0 927 0.8 61
2019-05-22 08:00:00 8.3 8 Sur 9 Sudoeste 0 926.7 0.9 73
2019-05-22 07:00:00 7 7 Sur 9 Sur 0 926.3 0.4 72
2019-05-22 06:00:00 7.9 3 Norte 21 Norte 0 926.2 0.3 70
2019-05-22 05:00:00 8.6 3 Norte 8 Norte 0 925.8 -0.2 79
2019-05-22 04:00:00 10 2 Sudoeste 9 Norte 0 925.9 0.2 63
2019-05-22 03:00:00 11 4 Nordeste 17 Sudeste 0 925.9 0.3 62
2019-05-22 02:00:00 12.9 10 Sudeste 26 Este 0 926 0.8 49
2019-05-22 01:00:00 14.4 14 Este 30 Este 0 925.7 1.2 46
2019-05-22 00:00:00 13.9 9 Nordeste 18 Este 0 925.6 1.7 48